createdAt,value
2022-10-16T00:01:37.877Z,15.81
2022-10-16T00:04:05.953Z,15.76
2022-10-16T00:06:33.653Z,15.72
2022-10-16T00:09:02.890Z,15.70
2022-10-16T00:11:34.216Z,15.60
2022-10-16T00:14:03.430Z,15.55
2022-10-16T00:16:31.190Z,15.51
2022-10-16T00:18:59.237Z,15.54
2022-10-16T00:21:28.823Z,15.50
2022-10-16T00:24:00.029Z,15.49
2022-10-16T00:26:30.861Z,15.41
2022-10-16T00:28:58.811Z,15.41
2022-10-16T00:31:28.609Z,15.44
2022-10-16T00:33:56.319Z,15.45
2022-10-16T00:36:26.417Z,15.43
2022-10-16T00:38:55.433Z,15.43
2022-10-16T00:41:25.317Z,15.43
2022-10-16T00:43:56.665Z,15.47
2022-10-16T00:46:26.258Z,15.45
2022-10-16T00:49:01.516Z,15.40
2022-10-16T00:51:33.510Z,15.39
2022-10-16T00:54:01.869Z,15.42
2022-10-16T00:56:29.728Z,15.39
2022-10-16T00:59:00.438Z,15.38
2022-10-16T01:01:28.308Z,15.36
2022-10-16T01:03:55.972Z,15.35
2022-10-16T01:06:27.056Z,15.33
2022-10-16T01:09:09.167Z,15.38
2022-10-16T01:11:43.952Z,15.35
2022-10-16T01:14:19.460Z,15.36
2022-10-16T01:16:54.263Z,15.29
2022-10-16T01:19:33.162Z,15.31
2022-10-16T01:22:02.783Z,15.32
2022-10-16T01:24:40.408Z,15.31
2022-10-16T01:27:15.302Z,15.28
2022-10-16T01:29:50.606Z,15.29
2022-10-16T01:32:21.493Z,15.32
2022-10-16T01:34:53.284Z,15.31
2022-10-16T01:37:31.469Z,15.30
2022-10-16T01:40:02.550Z,15.29
2022-10-16T01:42:36.854Z,15.29
2022-10-16T01:45:08.717Z,15.32
2022-10-16T01:47:38.192Z,15.31
2022-10-16T01:50:08.665Z,15.28
2022-10-16T01:52:39.087Z,15.30
2022-10-16T01:55:09.785Z,15.30
2022-10-16T01:57:43.157Z,15.27
2022-10-16T02:00:14.051Z,15.26
2022-10-16T02:02:46.859Z,15.21
2022-10-16T02:05:21.967Z,15.18
2022-10-16T02:07:50.160Z,15.15
2022-10-16T02:10:18.061Z,15.15
2022-10-16T02:12:52.022Z,15.13
2022-10-16T02:15:19.809Z,15.09
2022-10-16T02:17:47.527Z,15.10
2022-10-16T02:20:15.477Z,15.12
2022-10-16T02:22:47.612Z,15.13
2022-10-16T02:25:21.642Z,15.11
2022-10-16T02:27:57.373Z,15.14
2022-10-16T02:30:31.065Z,15.14
2022-10-16T02:33:01.967Z,15.14
2022-10-16T02:35:30.404Z,15.14
2022-10-16T02:37:59.557Z,15.12
2022-10-16T02:40:28.659Z,15.16
2022-10-16T02:42:57.758Z,15.20
2022-10-16T02:45:26.038Z,15.21
2022-10-16T02:47:53.916Z,15.24
2022-10-16T02:50:21.573Z,15.24
2022-10-16T02:52:49.261Z,15.25
2022-10-16T02:55:17.051Z,15.25
2022-10-16T02:57:44.958Z,15.23
2022-10-16T03:00:16.829Z,15.24
2022-10-16T03:02:44.890Z,15.24
2022-10-16T03:05:12.747Z,15.25
2022-10-16T03:07:40.712Z,15.25
2022-10-16T03:10:09.301Z,15.18
2022-10-16T03:12:36.964Z,15.19
2022-10-16T03:15:05.581Z,15.15
2022-10-16T03:17:35.639Z,15.13
2022-10-16T03:20:03.498Z,15.13
2022-10-16T03:22:31.382Z,15.13
2022-10-16T03:24:59.012Z,15.11
2022-10-16T03:27:27.228Z,15.11
2022-10-16T03:29:55.144Z,15.10
2022-10-16T03:32:23.104Z,15.12
2022-10-16T03:34:52.131Z,15.13
2022-10-16T03:37:19.769Z,15.16
2022-10-16T03:39:47.722Z,15.19
2022-10-16T03:42:15.359Z,15.19
2022-10-16T03:44:42.997Z,15.19
2022-10-16T03:47:10.675Z,15.18
2022-10-16T03:49:38.334Z,15.18
2022-10-16T03:52:07.350Z,15.13
2022-10-16T03:54:35.100Z,15.04
2022-10-16T03:57:02.744Z,14.88
2022-10-16T03:59:30.380Z,14.82
2022-10-16T04:01:58.078Z,14.77
2022-10-16T04:04:26.580Z,14.71
2022-10-16T04:06:54.192Z,14.74
2022-10-16T04:09:23.178Z,14.73
2022-10-16T04:11:50.834Z,14.75
2022-10-16T04:14:18.526Z,14.75
2022-10-16T04:16:46.181Z,14.75
2022-10-16T04:19:14.191Z,14.72
2022-10-16T04:21:41.984Z,14.75
2022-10-16T04:24:09.652Z,14.76
2022-10-16T04:26:38.685Z,14.75
2022-10-16T04:29:07.037Z,14.73
2022-10-16T04:31:34.713Z,14.70
2022-10-16T04:34:02.392Z,14.70
2022-10-16T04:36:30.014Z,14.72
2022-10-16T04:38:57.721Z,14.74
2022-10-16T04:41:25.432Z,14.75
2022-10-16T04:43:54.404Z,14.73
2022-10-16T04:46:22.029Z,14.74
2022-10-16T04:48:49.678Z,14.73
2022-10-16T04:51:17.320Z,14.74
2022-10-16T04:53:44.971Z,14.76
2022-10-16T04:56:12.601Z,14.75
2022-10-16T04:58:40.302Z,14.79
2022-10-16T05:01:09.266Z,14.79
2022-10-16T05:03:37.153Z,14.78
2022-10-16T05:06:07.205Z,14.76
2022-10-16T05:08:35.016Z,14.77
2022-10-16T05:11:02.818Z,14.78
2022-10-16T05:13:30.485Z,14.75
2022-10-16T05:15:58.161Z,14.69
2022-10-16T05:18:27.161Z,14.64
2022-10-16T05:20:54.855Z,14.63
2022-10-16T05:23:22.515Z,14.66
2022-10-16T05:26:00.690Z,14.65
2022-10-16T05:28:29.539Z,14.61
2022-10-16T05:30:57.497Z,14.64
2022-10-16T05:33:27.721Z,14.63
2022-10-16T05:35:55.369Z,14.66
2022-10-16T05:38:23.103Z,14.68
2022-10-16T05:40:54.394Z,14.70
2022-10-16T05:43:22.353Z,14.69
2022-10-16T05:45:56.119Z,14.66
2022-10-16T05:48:24.275Z,14.70
2022-10-16T05:51:00.197Z,14.71
2022-10-16T05:53:29.088Z,14.67
2022-10-16T05:55:57.893Z,14.69
2022-10-16T05:58:26.869Z,14.72
2022-10-16T06:00:55.873Z,14.74
2022-10-16T06:03:23.643Z,14.74
2022-10-16T06:05:51.612Z,14.75
2022-10-16T06:08:21.885Z,14.75
2022-10-16T06:10:50.045Z,14.77
2022-10-16T06:13:17.708Z,14.75
2022-10-16T06:15:45.351Z,14.78
2022-10-16T06:18:13.002Z,14.76
2022-10-16T06:20:40.661Z,14.69
2022-10-16T06:23:08.301Z,14.59
2022-10-16T06:25:37.335Z,14.62
2022-10-16T06:28:05.245Z,14.56
2022-10-16T06:30:32.977Z,14.64
2022-10-16T06:33:00.640Z,14.60
2022-10-16T06:35:30.210Z,14.61
2022-10-16T06:37:57.952Z,14.70
2022-10-16T06:40:25.869Z,14.75
2022-10-16T06:42:56.706Z,14.71
2022-10-16T06:45:24.478Z,14.76
2022-10-16T06:47:52.145Z,14.76
2022-10-16T06:50:19.841Z,14.82
2022-10-16T06:52:47.508Z,14.86
2022-10-16T06:55:15.620Z,14.91
2022-10-16T06:57:43.266Z,14.92
2022-10-16T07:00:13.237Z,15.03
2022-10-16T07:02:41.276Z,14.98
2022-10-16T07:05:09.397Z,15.01
2022-10-16T07:07:37.136Z,15.01
2022-10-16T07:10:05.413Z,15.06
2022-10-16T07:12:33.044Z,15.06
2022-10-16T07:15:00.699Z,15.10
2022-10-16T07:17:29.741Z,15.12
2022-10-16T07:19:57.371Z,15.07
2022-10-16T07:22:25.339Z,15.13
2022-10-16T07:24:53.481Z,15.18
2022-10-16T07:27:23.184Z,15.20
2022-10-16T07:29:50.880Z,15.30
2022-10-16T07:32:18.530Z,15.36
2022-10-16T07:34:47.652Z,15.33
2022-10-16T07:37:15.282Z,15.43
2022-10-16T07:39:42.974Z,15.50
2022-10-16T07:42:10.910Z,15.51
2022-10-16T07:44:38.663Z,15.66
2022-10-16T07:47:06.353Z,15.70
2022-10-16T07:49:34.080Z,15.74
2022-10-16T07:52:03.072Z,15.85
2022-10-16T07:54:30.712Z,15.72
2022-10-16T07:56:58.346Z,15.71
2022-10-16T07:59:26.168Z,15.85
2022-10-16T08:01:53.864Z,15.85
2022-10-16T08:04:21.581Z,15.86
2022-10-16T08:06:50.606Z,15.79
2022-10-16T08:09:19.594Z,15.92
2022-10-16T08:11:47.329Z,15.98
2022-10-16T08:14:14.934Z,16.02
2022-10-16T08:16:42.704Z,16.06
2022-10-16T08:19:10.344Z,16.16
2022-10-16T08:21:38.335Z,16.20
2022-10-16T08:24:06.196Z,16.23
2022-10-16T08:26:35.226Z,16.10
2022-10-16T08:29:02.952Z,16.20
2022-10-16T08:31:30.648Z,16.19
2022-10-16T08:33:58.267Z,16.25
2022-10-16T08:36:25.964Z,16.24
2022-10-16T08:38:55.141Z,16.26
2022-10-16T08:41:59.342Z,16.41
2022-10-16T08:44:39.637Z,16.48
2022-10-16T08:47:15.629Z,16.47
2022-10-16T08:49:55.310Z,16.53
2022-10-16T08:52:23.196Z,16.61
2022-10-16T08:54:57.796Z,16.67
2022-10-16T08:57:27.896Z,16.72
2022-10-16T09:00:02.296Z,16.78
2022-10-16T09:02:34.432Z,16.83
2022-10-16T09:05:24.293Z,16.82
2022-10-16T09:10:41.836Z,16.98
2022-10-16T09:13:20.123Z,17.04
2022-10-16T09:15:58.486Z,17.02
2022-10-16T09:18:34.109Z,17.12
2022-10-16T09:21:11.561Z,17.08
2022-10-16T09:23:39.796Z,17.10
2022-10-16T09:26:13.341Z,17.07
2022-10-16T09:28:41.514Z,17.13
2022-10-16T09:31:17.372Z,17.21
2022-10-16T09:33:49.083Z,17.27
2022-10-16T09:36:17.037Z,17.28
2022-10-16T09:38:44.741Z,17.28
2022-10-16T09:41:23.765Z,17.30
2022-10-16T09:43:56.250Z,17.27
2022-10-16T09:46:29.066Z,17.32
2022-10-16T09:48:59.622Z,17.39
2022-10-16T09:51:29.825Z,17.38
2022-10-16T09:54:00.510Z,17.40
2022-10-16T09:56:30.132Z,17.45
2022-10-16T09:58:59.688Z,17.53
2022-10-16T10:01:33.367Z,17.51
2022-10-16T10:04:03.742Z,17.55
2022-10-16T10:06:34.980Z,17.65
2022-10-16T10:09:15.970Z,17.76
2022-10-16T10:11:47.206Z,17.78
2022-10-16T10:14:20.492Z,17.73
2022-10-16T10:16:50.192Z,17.72
2022-10-16T10:19:20.222Z,17.77
2022-10-16T10:21:48.654Z,17.72
2022-10-16T10:24:18.713Z,17.57
2022-10-16T10:26:53.123Z,17.64
2022-10-16T10:29:41.590Z,17.62
2022-10-16T10:32:24.852Z,17.71
2022-10-16T10:35:16.444Z,17.66
2022-10-16T10:38:05.366Z,17.71
2022-10-16T10:40:45.579Z,17.76
2022-10-16T10:43:25.002Z,17.78
2022-10-16T10:45:57.151Z,17.77
2022-10-16T10:48:55.458Z,17.67
2022-10-16T10:51:31.470Z,17.65
2022-10-16T10:54:12.409Z,17.67
2022-10-16T10:56:46.924Z,17.73
2022-10-16T10:59:39.203Z,17.75
2022-10-16T11:02:17.268Z,17.75
2022-10-16T11:05:00.847Z,17.75
2022-10-16T11:07:32.026Z,17.70
2022-10-16T11:10:04.005Z,17.71
2022-10-16T11:12:37.048Z,17.68
2022-10-16T11:15:13.392Z,17.74
2022-10-16T11:17:44.026Z,17.78
2022-10-16T11:20:19.951Z,17.85
2022-10-16T11:22:52.141Z,17.92
2022-10-16T11:25:24.168Z,17.97
2022-10-16T11:27:56.312Z,18.01
2022-10-16T11:30:26.364Z,18.06
2022-10-16T11:33:12.040Z,18.06
2022-10-16T11:35:51.319Z,18.07
2022-10-16T11:38:31.240Z,18.06
2022-10-16T11:41:04.637Z,18.02
2022-10-16T11:43:38.051Z,17.95
2022-10-16T11:46:14.033Z,17.93
2022-10-16T11:48:52.321Z,17.95
2022-10-16T11:51:33.750Z,18.03
2022-10-16T11:54:07.379Z,18.30
2022-10-16T11:56:40.487Z,18.51
2022-10-16T11:59:18.143Z,18.63
2022-10-16T12:01:49.949Z,18.84
2022-10-16T12:04:29.297Z,19.01
2022-10-16T12:07:04.881Z,19.19
2022-10-16T12:09:34.508Z,19.24
2022-10-16T12:12:02.539Z,19.41
2022-10-16T12:17:29.502Z,19.36
2022-10-16T12:20:02.396Z,19.38
2022-10-16T12:22:36.853Z,19.14
2022-10-16T12:25:07.902Z,19.04
2022-10-16T12:27:38.715Z,18.84
2022-10-16T12:30:10.499Z,19.00
2022-10-16T12:32:52.834Z,19.22
2022-10-16T12:35:29.134Z,19.41
2022-10-16T12:38:17.771Z,19.69
2022-10-16T12:41:07.135Z,19.70
2022-10-16T12:44:17.323Z,19.88
2022-10-16T12:46:54.139Z,20.09
2022-10-16T12:49:45.762Z,20.22
2022-10-16T12:52:48.957Z,20.26
2022-10-16T12:55:38.007Z,20.30
2022-10-16T12:58:45.939Z,20.37
2022-10-16T13:01:45.453Z,20.40
2022-10-16T13:04:42.341Z,20.51
2022-10-16T13:07:28.623Z,20.35
2022-10-16T13:10:09.038Z,20.36
2022-10-16T13:13:04.700Z,20.33
2022-10-16T13:15:44.042Z,20.13
2022-10-16T13:18:17.933Z,20.16
2022-10-16T13:21:10.463Z,20.11
2022-10-16T13:23:44.781Z,20.09
2022-10-16T13:26:24.753Z,20.06
2022-10-16T13:28:53.928Z,19.97
2022-10-16T13:31:24.831Z,19.85
2022-10-16T13:33:55.632Z,19.76
2022-10-16T13:36:25.361Z,19.70
2022-10-16T13:39:06.811Z,19.61
2022-10-16T13:41:34.449Z,19.49
2022-10-16T13:44:03.572Z,19.40
2022-10-16T13:46:35.201Z,19.39
2022-10-16T13:49:05.085Z,19.26
2022-10-16T13:51:33.837Z,19.23
2022-10-16T13:54:01.874Z,19.25
2022-10-16T13:56:31.973Z,19.17
2022-10-16T13:59:00.826Z,19.11
2022-10-16T14:01:33.016Z,19.04
2022-10-16T14:04:06.830Z,19.03
2022-10-16T14:06:35.346Z,19.03
2022-10-16T14:09:10.401Z,19.04
2022-10-16T14:11:46.173Z,19.01
2022-10-16T14:14:14.607Z,18.99
2022-10-16T14:16:45.188Z,18.92
2022-10-16T14:19:19.685Z,18.87
2022-10-16T14:21:47.444Z,18.81
2022-10-16T14:24:24.360Z,18.78
2022-10-16T14:26:52.248Z,18.85
2022-10-16T14:29:21.895Z,18.89
2022-10-16T14:31:59.107Z,18.90
2022-10-16T14:34:29.920Z,18.90
2022-10-16T14:37:00.499Z,18.89
2022-10-16T14:39:28.738Z,18.85
2022-10-16T14:41:59.769Z,18.80
2022-10-16T14:44:33.246Z,18.81
2022-10-16T14:47:09.848Z,18.86
2022-10-16T14:49:37.937Z,18.85
2022-10-16T14:52:11.735Z,18.88
2022-10-16T14:54:40.101Z,18.88
2022-10-16T14:57:18.676Z,18.89
2022-10-16T14:59:47.166Z,18.89
2022-10-16T15:02:24.825Z,18.83
2022-10-16T15:04:53.450Z,18.71
2022-10-16T15:07:21.477Z,18.61
2022-10-16T15:09:49.918Z,18.54
2022-10-16T15:12:19.128Z,18.51
2022-10-16T15:14:47.199Z,18.47
2022-10-16T15:17:17.499Z,18.46
2022-10-16T15:19:49.643Z,18.42
2022-10-16T15:22:20.321Z,18.40
2022-10-16T15:24:50.694Z,18.39
2022-10-16T15:27:18.818Z,18.40
2022-10-16T15:29:46.974Z,18.39
2022-10-16T15:32:15.528Z,18.36
2022-10-16T15:34:47.735Z,18.34
2022-10-16T15:37:21.448Z,18.34
2022-10-16T15:39:54.718Z,18.30
2022-10-16T15:42:23.189Z,18.28
2022-10-16T15:44:53.338Z,18.27
2022-10-16T15:47:22.643Z,18.25
2022-10-16T15:49:53.028Z,18.24
2022-10-16T15:52:22.738Z,18.22
2022-10-16T15:54:53.496Z,18.20
2022-10-16T15:57:22.628Z,18.19
2022-10-16T15:59:50.854Z,18.16
2022-10-16T16:02:19.306Z,18.13
2022-10-16T16:04:48.006Z,18.13
2022-10-16T16:07:16.022Z,18.13
2022-10-16T16:09:46.212Z,18.14
2022-10-16T16:12:17.560Z,18.12
2022-10-16T16:14:47.336Z,18.12
2022-10-16T16:17:17.895Z,18.13
2022-10-16T16:19:48.077Z,18.12
2022-10-16T16:22:16.365Z,18.12
2022-10-16T16:24:47.458Z,18.12
2022-10-16T16:27:20.980Z,18.11
2022-10-16T16:29:49.759Z,18.08
2022-10-16T16:32:18.607Z,18.08
2022-10-16T16:34:46.877Z,18.05
2022-10-16T16:37:15.406Z,18.00
2022-10-16T16:39:45.597Z,17.95
2022-10-16T16:42:13.762Z,17.90
2022-10-16T16:44:47.636Z,17.88
2022-10-16T16:47:25.134Z,17.85
2022-10-16T16:50:19.917Z,17.81
2022-10-16T16:53:22.183Z,17.79
2022-10-16T16:59:32.794Z,17.71
2022-10-16T17:02:07.430Z,17.68
2022-10-16T17:04:37.049Z,17.64
2022-10-16T17:07:05.957Z,17.63
2022-10-16T17:09:35.579Z,17.62
2022-10-16T17:12:06.193Z,17.59
2022-10-16T17:14:34.366Z,17.58
2022-10-16T17:17:03.826Z,17.55
2022-10-16T17:19:32.188Z,17.52
2022-10-16T17:24:29.711Z,17.52
2022-10-16T17:27:00.086Z,17.52
2022-10-16T17:29:35.897Z,17.51
2022-10-16T17:32:05.728Z,17.49
2022-10-16T17:34:36.972Z,17.51
2022-10-16T17:37:05.369Z,17.48
2022-10-16T17:39:35.018Z,17.44
2022-10-16T17:42:04.661Z,17.44
2022-10-16T17:44:37.079Z,17.42
2022-10-16T17:47:07.463Z,17.40
2022-10-16T17:49:38.316Z,17.39
2022-10-16T17:52:10.635Z,17.28
2022-10-16T17:54:41.969Z,17.20
2022-10-16T17:57:19.651Z,17.18
2022-10-16T17:59:55.853Z,17.17
2022-10-16T18:02:30.421Z,17.16
2022-10-16T18:05:07.315Z,17.17
2022-10-16T18:07:37.188Z,17.22
2022-10-16T18:10:11.930Z,17.29
2022-10-16T18:12:40.826Z,17.36
2022-10-16T18:15:12.234Z,17.37
2022-10-16T18:17:41.579Z,17.40
2022-10-16T18:20:13.777Z,17.38
2022-10-16T18:22:44.029Z,17.41
2022-10-16T18:25:11.684Z,17.43
2022-10-16T18:27:39.415Z,17.42
2022-10-16T18:30:08.008Z,17.34
2022-10-16T18:32:37.856Z,17.29
2022-10-16T18:35:06.567Z,17.22
2022-10-16T18:37:36.429Z,17.10
2022-10-16T18:40:04.824Z,17.11
2022-10-16T18:42:32.821Z,17.08
2022-10-16T18:45:01.011Z,17.08
2022-10-16T18:47:30.190Z,17.10
2022-10-16T18:49:59.295Z,17.06
2022-10-16T18:52:27.107Z,16.98
2022-10-16T18:54:57.804Z,16.93
2022-10-16T18:57:25.972Z,16.93
2022-10-16T18:59:54.010Z,16.79
2022-10-16T19:02:21.996Z,16.73
2022-10-16T19:04:49.883Z,16.77
2022-10-16T19:07:18.968Z,16.79
2022-10-16T19:09:46.654Z,16.82
2022-10-16T19:12:14.937Z,16.76
2022-10-16T19:14:42.917Z,16.74
2022-10-16T19:17:10.749Z,16.75
2022-10-16T19:19:38.682Z,16.76
2022-10-16T19:22:14.434Z,16.75
2022-10-16T19:24:45.062Z,16.74
2022-10-16T19:27:12.738Z,16.72
2022-10-16T19:29:40.514Z,16.62
2022-10-16T19:32:08.543Z,16.63
2022-10-16T19:34:36.373Z,16.57
2022-10-16T19:37:04.487Z,16.47
2022-10-16T19:39:32.341Z,16.51
2022-10-16T19:42:01.384Z,16.53
2022-10-16T19:44:29.453Z,16.53
2022-10-16T19:46:57.165Z,16.52
2022-10-16T19:49:25.007Z,16.45
2022-10-16T19:51:54.425Z,16.49
2022-10-16T19:54:22.545Z,16.53
2022-10-16T19:56:50.400Z,16.46
2022-10-16T19:59:20.254Z,16.44
2022-10-16T20:01:48.643Z,16.43
2022-10-16T20:04:16.768Z,16.43
2022-10-16T20:06:44.509Z,16.45
2022-10-16T20:09:12.203Z,16.45
2022-10-16T20:11:39.902Z,16.41
2022-10-16T20:14:08.546Z,16.45
2022-10-16T20:16:37.533Z,16.44
2022-10-16T20:19:05.261Z,16.35
2022-10-16T20:21:35.019Z,16.26
2022-10-16T20:24:04.987Z,16.28
2022-10-16T20:26:33.030Z,16.28
2022-10-16T20:29:00.892Z,16.24
2022-10-16T20:31:30.554Z,16.23
2022-10-16T20:34:03.224Z,16.28
2022-10-16T20:36:31.596Z,16.43
2022-10-16T20:38:59.353Z,16.51
2022-10-16T20:41:27.034Z,16.53
2022-10-16T20:43:55.635Z,16.55
2022-10-16T20:46:24.806Z,16.55
2022-10-16T20:48:53.910Z,16.55
2022-10-16T20:51:24.897Z,16.53
2022-10-16T20:53:55.586Z,16.54
2022-10-16T20:56:24.917Z,16.51
2022-10-16T20:58:52.948Z,16.52
2022-10-16T21:01:23.235Z,16.45
2022-10-16T21:03:53.032Z,16.43
2022-10-16T21:06:21.203Z,16.42
2022-10-16T21:08:50.607Z,16.35
2022-10-16T21:11:20.621Z,16.32
2022-10-16T21:13:48.578Z,16.29
2022-10-16T21:16:16.811Z,16.25
2022-10-16T21:18:44.959Z,16.21
2022-10-16T21:21:20.866Z,16.21
2022-10-16T21:23:50.524Z,16.18
2022-10-16T21:26:20.951Z,16.16
2022-10-16T21:28:48.835Z,16.18
2022-10-16T21:31:19.612Z,16.18
2022-10-16T21:33:47.968Z,16.11
2022-10-16T21:36:17.422Z,16.07
2022-10-16T21:41:18.106Z,16.04
2022-10-16T21:43:46.311Z,15.94
2022-10-16T21:46:14.460Z,15.96
2022-10-16T21:48:43.060Z,16.02
2022-10-16T21:51:11.859Z,16.05
2022-10-16T21:53:39.769Z,16.04
2022-10-16T21:56:14.391Z,16.03
2022-10-16T21:58:44.263Z,15.95
2022-10-16T22:01:14.521Z,15.94
2022-10-16T22:03:42.630Z,15.94
2022-10-16T22:06:11.739Z,15.98
2022-10-16T22:08:40.702Z,15.93
2022-10-16T22:11:10.736Z,15.78
2022-10-16T22:13:38.518Z,15.85
2022-10-16T22:16:08.372Z,15.82
2022-10-16T22:18:37.830Z,15.87
2022-10-16T22:21:08.056Z,15.89
2022-10-16T22:23:36.527Z,15.79
2022-10-16T22:26:07.103Z,15.79
2022-10-16T22:28:35.485Z,15.78
2022-10-16T22:31:05.471Z,15.72
2022-10-16T22:36:09.204Z,15.75
2022-10-16T22:38:37.807Z,15.81
2022-10-16T22:41:08.549Z,15.84
2022-10-16T22:43:37.425Z,15.84
2022-10-16T22:46:05.922Z,15.84
2022-10-16T22:48:35.413Z,15.82
2022-10-16T22:51:03.351Z,15.87
2022-10-16T22:53:31.003Z,15.70
2022-10-16T22:55:58.970Z,15.67
2022-10-16T22:58:27.270Z,15.67
2022-10-16T23:00:55.379Z,15.64
2022-10-16T23:03:23.581Z,15.61
2022-10-16T23:05:53.044Z,15.62
2022-10-16T23:08:21.037Z,15.56
2022-10-16T23:10:49.576Z,15.52
2022-10-16T23:13:17.240Z,15.53
2022-10-16T23:15:45.851Z,15.48
2022-10-16T23:18:13.601Z,15.32
2022-10-16T23:20:41.658Z,15.41
2022-10-16T23:23:11.017Z,15.41
2022-10-16T23:25:38.749Z,15.40
2022-10-16T23:28:06.417Z,15.40
2022-10-16T23:30:34.133Z,15.29
2022-10-16T23:33:01.778Z,15.27
2022-10-16T23:35:29.434Z,15.10
2022-10-16T23:37:58.114Z,15.11
2022-10-16T23:40:27.212Z,15.13
2022-10-16T23:42:54.863Z,15.19
2022-10-16T23:45:22.472Z,15.25
2022-10-16T23:47:50.124Z,15.29
2022-10-16T23:50:17.930Z,15.32
2022-10-16T23:52:45.692Z,15.33
2022-10-16T23:55:13.393Z,15.32
2022-10-16T23:57:42.448Z,15.30
